Аэропорт: Байкал. Улан-Удэ

ICAO: UIUU

METAR:
2018/09/23 11:00
UIUU 231100Z VRB01MPS 9999 NSC 12/03 Q1019 R26/CLRD60 NOSIG RMK QFE719/0959
METAR:
2018/09/23 09:25
TAF UIUU 230800Z 2309/2409 24003MPS 9999 NSC